<?xml version="1.0" encoding="UTF-8" standalone="no" ?>
<gpx xmlns="http://www.topografix.com/GPX/1/1" xmlns:xsi="http://www.w3.org/2001/XMLSchema-instance" xsi:schemaLocation="http://www.topografix.com/GPX/1/1 http://www.topografix.com/GPX/1/1/gpx.xsd" version="1.1" creator="VisuGPX - https://www.visugpx.com">
  <metadata>
    <name>Volvic Nature 2022</name>
  </metadata>
  <trk>
    <name><![CDATA[12654877-Volvic Nature 2022]]></name>
    <extensions>
      <line xmlns="http://www.topografix.com/GPX/gpx_style/0/2">
        <color>0000FF</color>
        <width>4</width>
      </line>
    </extensions>
    <trkseg>
      <trkpt lat="45.87492" lon="3.0435">
        <ele>481</ele>
        <time>2022-02-15T09:14:08Z</time>
      </trkpt>
      <trkpt lat="45.87464" lon="3.04308">
        <ele>481</ele>
        <time>2022-02-15T09:14:28Z</time>
      </trkpt>
      <trkpt lat="45.87444" lon="3.04292">
        <ele>480</ele>
        <time>2022-02-15T09:14:40Z</time>
      </trkpt>
      <trkpt lat="45.87412" lon="3.04237">
        <ele>481</ele>
        <time>2022-02-15T09:15:05Z</time>
      </trkpt>
      <trkpt lat="45.87368" lon="3.04184">
        <ele>482</ele>
        <time>2022-02-15T09:15:33Z</time>
      </trkpt>
      <trkpt lat="45.87334" lon="3.04126">
        <ele>484</ele>
        <time>2022-02-15T09:16:00Z</time>
      </trkpt>
      <trkpt lat="45.87239" lon="3.03961">
        <ele>496</ele>
        <time>2022-02-15T09:17:14Z</time>
      </trkpt>
      <trkpt lat="45.87293" lon="3.03949">
        <ele>498</ele>
        <time>2022-02-15T09:17:42Z</time>
      </trkpt>
      <trkpt lat="45.87273" lon="3.03924">
        <ele>501</ele>
        <time>2022-02-15T09:17:55Z</time>
      </trkpt>
      <trkpt lat="45.87264" lon="3.03891">
        <ele>504</ele>
        <time>2022-02-15T09:18:07Z</time>
      </trkpt>
      <trkpt lat="45.8726" lon="3.03842">
        <ele>508</ele>
        <time>2022-02-15T09:18:25Z</time>
      </trkpt>
      <trkpt lat="45.87246" lon="3.0378">
        <ele>512</ele>
        <time>2022-02-15T09:18:47Z</time>
      </trkpt>
      <trkpt lat="45.87308" lon="3.03646">
        <ele>527</ele>
        <time>2022-02-15T09:19:43Z</time>
      </trkpt>
      <trkpt lat="45.87246" lon="3.03557">
        <ele>535</ele>
        <time>2022-02-15T09:20:27Z</time>
      </trkpt>
      <trkpt lat="45.87202" lon="3.03533">
        <ele>538</ele>
        <time>2022-02-15T09:20:51Z</time>
      </trkpt>
      <trkpt lat="45.87193" lon="3.03513">
        <ele>542</ele>
        <time>2022-02-15T09:20:59Z</time>
      </trkpt>
      <trkpt lat="45.87216" lon="3.03424">
        <ele>558</ele>
        <time>2022-02-15T09:21:32Z</time>
      </trkpt>
      <trkpt lat="45.87218" lon="3.03393">
        <ele>560</ele>
        <time>2022-02-15T09:21:43Z</time>
      </trkpt>
      <trkpt lat="45.87295" lon="3.03341">
        <ele>573</ele>
        <time>2022-02-15T09:22:26Z</time>
      </trkpt>
      <trkpt lat="45.87313" lon="3.03319">
        <ele>576</ele>
        <time>2022-02-15T09:22:37Z</time>
      </trkpt>
      <trkpt lat="45.87341" lon="3.03262">
        <ele>578</ele>
        <time>2022-02-15T09:23:02Z</time>
      </trkpt>
      <trkpt lat="45.87494" lon="3.0314">
        <ele>585</ele>
        <time>2022-02-15T09:24:29Z</time>
      </trkpt>
      <trkpt lat="45.87513" lon="3.03111">
        <ele>586</ele>
        <time>2022-02-15T09:24:43Z</time>
      </trkpt>
      <trkpt lat="45.87519" lon="3.03081">
        <ele>586</ele>
        <time>2022-02-15T09:24:54Z</time>
      </trkpt>
      <trkpt lat="45.87527" lon="3.03047">
        <ele>588</ele>
        <time>2022-02-15T09:25:07Z</time>
      </trkpt>
      <trkpt lat="45.87521" lon="3.02973">
        <ele>589</ele>
        <time>2022-02-15T09:25:32Z</time>
      </trkpt>
      <trkpt lat="45.87509" lon="3.02904">
        <ele>590</ele>
        <time>2022-02-15T09:25:57Z</time>
      </trkpt>
      <trkpt lat="45.87448" lon="3.02756">
        <ele>593</ele>
        <time>2022-02-15T09:26:57Z</time>
      </trkpt>
      <trkpt lat="45.87454" lon="3.02718">
        <ele>595</ele>
        <time>2022-02-15T09:27:11Z</time>
      </trkpt>
      <trkpt lat="45.87469" lon="3.02704">
        <ele>596</ele>
        <time>2022-02-15T09:27:20Z</time>
      </trkpt>
      <trkpt lat="45.87493" lon="3.02705">
        <ele>598</ele>
        <time>2022-02-15T09:27:32Z</time>
      </trkpt>
      <trkpt lat="45.87524" lon="3.02703">
        <ele>600</ele>
        <time>2022-02-15T09:27:47Z</time>
      </trkpt>
      <trkpt lat="45.87539" lon="3.02689">
        <ele>600</ele>
        <time>2022-02-15T09:27:56Z</time>
      </trkpt>
      <trkpt lat="45.87569" lon="3.02643">
        <ele>600</ele>
        <time>2022-02-15T09:28:18Z</time>
      </trkpt>
      <trkpt lat="45.8759" lon="3.02596">
        <ele>601</ele>
        <time>2022-02-15T09:28:38Z</time>
      </trkpt>
      <trkpt lat="45.87602" lon="3.02562">
        <ele>603</ele>
        <time>2022-02-15T09:28:51Z</time>
      </trkpt>
      <trkpt lat="45.87613" lon="3.02518">
        <ele>606</ele>
        <time>2022-02-15T09:29:07Z</time>
      </trkpt>
      <trkpt lat="45.87621" lon="3.02444">
        <ele>608</ele>
        <time>2022-02-15T09:29:33Z</time>
      </trkpt>
      <trkpt lat="45.87614" lon="3.02422">
        <ele>607</ele>
        <time>2022-02-15T09:29:42Z</time>
      </trkpt>
      <trkpt lat="45.87619" lon="3.02319">
        <ele>609</ele>
        <time>2022-02-15T09:30:18Z</time>
      </trkpt>
      <trkpt lat="45.87627" lon="3.02291">
        <ele>609</ele>
        <time>2022-02-15T09:30:28Z</time>
      </trkpt>
      <trkpt lat="45.87669" lon="3.02237">
        <ele>608</ele>
        <time>2022-02-15T09:30:56Z</time>
      </trkpt>
      <trkpt lat="45.87746" lon="3.02193">
        <ele>611</ele>
        <time>2022-02-15T09:31:38Z</time>
      </trkpt>
      <trkpt lat="45.87769" lon="3.0215">
        <ele>610</ele>
        <time>2022-02-15T09:31:57Z</time>
      </trkpt>
      <trkpt lat="45.87779" lon="3.0211">
        <ele>610</ele>
        <time>2022-02-15T09:32:12Z</time>
      </trkpt>
      <trkpt lat="45.8778" lon="3.0206">
        <ele>614</ele>
        <time>2022-02-15T09:32:29Z</time>
      </trkpt>
      <trkpt lat="45.87764" lon="3.02019">
        <ele>619</ele>
        <time>2022-02-15T09:32:45Z</time>
      </trkpt>
      <trkpt lat="45.87746" lon="3.01992">
        <ele>621</ele>
        <time>2022-02-15T09:32:58Z</time>
      </trkpt>
      <trkpt lat="45.87701" lon="3.01928">
        <ele>623</ele>
        <time>2022-02-15T09:33:30Z</time>
      </trkpt>
      <trkpt lat="45.87678" lon="3.01898">
        <ele>620</ele>
        <time>2022-02-15T09:33:46Z</time>
      </trkpt>
      <trkpt lat="45.87655" lon="3.01879">
        <ele>620</ele>
        <time>2022-02-15T09:33:59Z</time>
      </trkpt>
      <trkpt lat="45.87636" lon="3.01873">
        <ele>623</ele>
        <time>2022-02-15T09:34:09Z</time>
      </trkpt>
      <trkpt lat="45.87614" lon="3.0187">
        <ele>627</ele>
        <time>2022-02-15T09:34:20Z</time>
      </trkpt>
      <trkpt lat="45.87584" lon="3.0189">
        <ele>627</ele>
        <time>2022-02-15T09:34:36Z</time>
      </trkpt>
      <trkpt lat="45.87554" lon="3.01919">
        <ele>631</ele>
        <time>2022-02-15T09:34:54Z</time>
      </trkpt>
      <trkpt lat="45.87529" lon="3.0195">
        <ele>631</ele>
        <time>2022-02-15T09:35:11Z</time>
      </trkpt>
      <trkpt lat="45.87456" lon="3.01983">
        <ele>632</ele>
        <time>2022-02-15T09:35:49Z</time>
      </trkpt>
      <trkpt lat="45.87417" lon="3.01978">
        <ele>637</ele>
        <time>2022-02-15T09:36:09Z</time>
      </trkpt>
      <trkpt lat="45.87403" lon="3.01973">
        <ele>638</ele>
        <time>2022-02-15T09:36:16Z</time>
      </trkpt>
      <trkpt lat="45.87384" lon="3.01968">
        <ele>638</ele>
        <time>2022-02-15T09:36:26Z</time>
      </trkpt>
      <trkpt lat="45.87334" lon="3.01955">
        <ele>640</ele>
        <time>2022-02-15T09:36:51Z</time>
      </trkpt>
      <trkpt lat="45.87227" lon="3.01887">
        <ele>639</ele>
        <time>2022-02-15T09:37:50Z</time>
      </trkpt>
      <trkpt lat="45.87202" lon="3.01857">
        <ele>642</ele>
        <time>2022-02-15T09:38:06Z</time>
      </trkpt>
      <trkpt lat="45.87184" lon="3.01812">
        <ele>644</ele>
        <time>2022-02-15T09:38:24Z</time>
      </trkpt>
      <trkpt lat="45.87181" lon="3.01879">
        <ele>636</ele>
        <time>2022-02-15T09:38:47Z</time>
      </trkpt>
      <trkpt lat="45.87192" lon="3.01902">
        <ele>634</ele>
        <time>2022-02-15T09:38:57Z</time>
      </trkpt>
      <trkpt lat="45.87204" lon="3.01914">
        <ele>633</ele>
        <time>2022-02-15T09:39:05Z</time>
      </trkpt>
      <trkpt lat="45.87256" lon="3.01936">
        <ele>633</ele>
        <time>2022-02-15T09:39:32Z</time>
      </trkpt>
      <trkpt lat="45.87268" lon="3.01955">
        <ele>631</ele>
        <time>2022-02-15T09:39:41Z</time>
      </trkpt>
      <trkpt lat="45.87335" lon="3.02009">
        <ele>625</ele>
        <time>2022-02-15T09:40:19Z</time>
      </trkpt>
      <trkpt lat="45.87373" lon="3.0204">
        <ele>624</ele>
        <time>2022-02-15T09:40:41Z</time>
      </trkpt>
      <trkpt lat="45.87405" lon="3.02073">
        <ele>621</ele>
        <time>2022-02-15T09:41:01Z</time>
      </trkpt>
      <trkpt lat="45.87414" lon="3.02096">
        <ele>619</ele>
        <time>2022-02-15T09:41:10Z</time>
      </trkpt>
      <trkpt lat="45.87429" lon="3.02117">
        <ele>617</ele>
        <time>2022-02-15T09:41:20Z</time>
      </trkpt>
      <trkpt lat="45.8745" lon="3.02125">
        <ele>616</ele>
        <time>2022-02-15T09:41:31Z</time>
      </trkpt>
      <trkpt lat="45.8747" lon="3.02133">
        <ele>615</ele>
        <time>2022-02-15T09:41:42Z</time>
      </trkpt>
      <trkpt lat="45.87491" lon="3.02151">
        <ele>614</ele>
        <time>2022-02-15T09:41:54Z</time>
      </trkpt>
      <trkpt lat="45.87503" lon="3.02178">
        <ele>614</ele>
        <time>2022-02-15T09:42:05Z</time>
      </trkpt>
      <trkpt lat="45.87509" lon="3.022">
        <ele>613</ele>
        <time>2022-02-15T09:42:13Z</time>
      </trkpt>
      <trkpt lat="45.87506" lon="3.02221">
        <ele>614</ele>
        <time>2022-02-15T09:42:21Z</time>
      </trkpt>
      <trkpt lat="45.87492" lon="3.02264">
        <ele>614</ele>
        <time>2022-02-15T09:42:37Z</time>
      </trkpt>
      <trkpt lat="45.87476" lon="3.02299">
        <ele>613</ele>
        <time>2022-02-15T09:42:52Z</time>
      </trkpt>
      <trkpt lat="45.87468" lon="3.02336">
        <ele>613</ele>
        <time>2022-02-15T09:43:05Z</time>
      </trkpt>
      <trkpt lat="45.87446" lon="3.02338">
        <ele>612</ele>
        <time>2022-02-15T09:43:16Z</time>
      </trkpt>
      <trkpt lat="45.87431" lon="3.02305">
        <ele>613</ele>
        <time>2022-02-15T09:43:30Z</time>
      </trkpt>
      <trkpt lat="45.87404" lon="3.02271">
        <ele>613</ele>
        <time>2022-02-15T09:43:48Z</time>
      </trkpt>
      <trkpt lat="45.87393" lon="3.02262">
        <ele>613</ele>
        <time>2022-02-15T09:43:54Z</time>
      </trkpt>
      <trkpt lat="45.87377" lon="3.02263">
        <ele>613</ele>
        <time>2022-02-15T09:44:02Z</time>
      </trkpt>
      <trkpt lat="45.87366" lon="3.02282">
        <ele>613</ele>
        <time>2022-02-15T09:44:11Z</time>
      </trkpt>
      <trkpt lat="45.87361" lon="3.02295">
        <ele>613</ele>
        <time>2022-02-15T09:44:16Z</time>
      </trkpt>
      <trkpt lat="45.87358" lon="3.02309">
        <ele>612</ele>
        <time>2022-02-15T09:44:21Z</time>
      </trkpt>
      <trkpt lat="45.8737" lon="3.02359">
        <ele>611</ele>
        <time>2022-02-15T09:44:40Z</time>
      </trkpt>
      <trkpt lat="45.87371" lon="3.02399">
        <ele>610</ele>
        <time>2022-02-15T09:44:54Z</time>
      </trkpt>
      <trkpt lat="45.87353" lon="3.02465">
        <ele>606</ele>
        <time>2022-02-15T09:45:18Z</time>
      </trkpt>
      <trkpt lat="45.8736" lon="3.02501">
        <ele>604</ele>
        <time>2022-02-15T09:45:31Z</time>
      </trkpt>
      <trkpt lat="45.87361" lon="3.02527">
        <ele>602</ele>
        <time>2022-02-15T09:45:40Z</time>
      </trkpt>
      <trkpt lat="45.87383" lon="3.02533">
        <ele>602</ele>
        <time>2022-02-15T09:45:52Z</time>
      </trkpt>
      <trkpt lat="45.874" lon="3.02529">
        <ele>603</ele>
        <time>2022-02-15T09:46:00Z</time>
      </trkpt>
      <trkpt lat="45.87418" lon="3.02542">
        <ele>603</ele>
        <time>2022-02-15T09:46:10Z</time>
      </trkpt>
      <trkpt lat="45.87435" lon="3.02541">
        <ele>603</ele>
        <time>2022-02-15T09:46:19Z</time>
      </trkpt>
      <trkpt lat="45.87445" lon="3.02539">
        <ele>604</ele>
        <time>2022-02-15T09:46:24Z</time>
      </trkpt>
      <trkpt lat="45.87462" lon="3.02544">
        <ele>604</ele>
        <time>2022-02-15T09:46:33Z</time>
      </trkpt>
      <trkpt lat="45.87453" lon="3.02586">
        <ele>601</ele>
        <time>2022-02-15T09:46:48Z</time>
      </trkpt>
      <trkpt lat="45.87446" lon="3.02606">
        <ele>600</ele>
        <time>2022-02-15T09:46:56Z</time>
      </trkpt>
      <trkpt lat="45.87426" lon="3.02621">
        <ele>599</ele>
        <time>2022-02-15T09:47:07Z</time>
      </trkpt>
      <trkpt lat="45.87426" lon="3.02637">
        <ele>597</ele>
        <time>2022-02-15T09:47:13Z</time>
      </trkpt>
      <trkpt lat="45.87443" lon="3.0265">
        <ele>597</ele>
        <time>2022-02-15T09:47:22Z</time>
      </trkpt>
      <trkpt lat="45.8746" lon="3.02665">
        <ele>597</ele>
        <time>2022-02-15T09:47:32Z</time>
      </trkpt>
      <trkpt lat="45.87466" lon="3.02684">
        <ele>596</ele>
        <time>2022-02-15T09:47:39Z</time>
      </trkpt>
      <trkpt lat="45.87469" lon="3.027">
        <ele>596</ele>
        <time>2022-02-15T09:47:45Z</time>
      </trkpt>
      <trkpt lat="45.875" lon="3.02713">
        <ele>598</ele>
        <time>2022-02-15T09:48:01Z</time>
      </trkpt>
      <trkpt lat="45.8751" lon="3.02723">
        <ele>599</ele>
        <time>2022-02-15T09:48:07Z</time>
      </trkpt>
      <trkpt lat="45.87529" lon="3.02732">
        <ele>601</ele>
        <time>2022-02-15T09:48:17Z</time>
      </trkpt>
      <trkpt lat="45.87597" lon="3.02755">
        <ele>611</ele>
        <time>2022-02-15T09:48:52Z</time>
      </trkpt>
      <trkpt lat="45.87731" lon="3.02759">
        <ele>626</ele>
        <time>2022-02-15T09:49:59Z</time>
      </trkpt>
      <trkpt lat="45.87874" lon="3.02772">
        <ele>650</ele>
        <time>2022-02-15T09:51:11Z</time>
      </trkpt>
      <trkpt lat="45.87951" lon="3.02777">
        <ele>664</ele>
        <time>2022-02-15T09:51:50Z</time>
      </trkpt>
      <trkpt lat="45.88013" lon="3.02813">
        <ele>673</ele>
        <time>2022-02-15T09:52:23Z</time>
      </trkpt>
      <trkpt lat="45.88065" lon="3.02879">
        <ele>674</ele>
        <time>2022-02-15T09:52:58Z</time>
      </trkpt>
      <trkpt lat="45.88095" lon="3.02914">
        <ele>672</ele>
        <time>2022-02-15T09:53:17Z</time>
      </trkpt>
      <trkpt lat="45.88139" lon="3.02952">
        <ele>667</ele>
        <time>2022-02-15T09:53:43Z</time>
      </trkpt>
      <trkpt lat="45.88166" lon="3.03022">
        <ele>661</ele>
        <time>2022-02-15T09:54:11Z</time>
      </trkpt>
      <trkpt lat="45.88211" lon="3.03106">
        <ele>654</ele>
        <time>2022-02-15T09:54:48Z</time>
      </trkpt>
      <trkpt lat="45.88288" lon="3.03212">
        <ele>642</ele>
        <time>2022-02-15T09:55:41Z</time>
      </trkpt>
      <trkpt lat="45.8829" lon="3.03101">
        <ele>642</ele>
        <time>2022-02-15T09:56:20Z</time>
      </trkpt>
      <trkpt lat="45.88305" lon="3.03074">
        <ele>643</ele>
        <time>2022-02-15T09:56:32Z</time>
      </trkpt>
      <trkpt lat="45.8832" lon="3.03078">
        <ele>642</ele>
        <time>2022-02-15T09:56:40Z</time>
      </trkpt>
      <trkpt lat="45.8833" lon="3.03091">
        <ele>639</ele>
        <time>2022-02-15T09:56:46Z</time>
      </trkpt>
      <trkpt lat="45.88349" lon="3.03116">
        <ele>633</ele>
        <time>2022-02-15T09:56:59Z</time>
      </trkpt>
      <trkpt lat="45.88373" lon="3.03116">
        <ele>628</ele>
        <time>2022-02-15T09:57:11Z</time>
      </trkpt>
      <trkpt lat="45.88418" lon="3.03094">
        <ele>623</ele>
        <time>2022-02-15T09:57:35Z</time>
      </trkpt>
      <trkpt lat="45.88447" lon="3.03109">
        <ele>613</ele>
        <time>2022-02-15T09:57:50Z</time>
      </trkpt>
      <trkpt lat="45.88455" lon="3.03082">
        <ele>615</ele>
        <time>2022-02-15T09:58:01Z</time>
      </trkpt>
      <trkpt lat="45.88459" lon="3.03052">
        <ele>618</ele>
        <time>2022-02-15T09:58:11Z</time>
      </trkpt>
      <trkpt lat="45.88462" lon="3.0302">
        <ele>621</ele>
        <time>2022-02-15T09:58:22Z</time>
      </trkpt>
      <trkpt lat="45.88475" lon="3.02984">
        <ele>622</ele>
        <time>2022-02-15T09:58:37Z</time>
      </trkpt>
      <trkpt lat="45.88486" lon="3.0296">
        <ele>622</ele>
        <time>2022-02-15T09:58:47Z</time>
      </trkpt>
      <trkpt lat="45.88509" lon="3.02944">
        <ele>622</ele>
        <time>2022-02-15T09:58:59Z</time>
      </trkpt>
      <trkpt lat="45.88523" lon="3.02952">
        <ele>622</ele>
        <time>2022-02-15T09:59:07Z</time>
      </trkpt>
      <trkpt lat="45.88542" lon="3.02997">
        <ele>618</ele>
        <time>2022-02-15T09:59:25Z</time>
      </trkpt>
      <trkpt lat="45.88553" lon="3.03053">
        <ele>612</ele>
        <time>2022-02-15T09:59:46Z</time>
      </trkpt>
      <trkpt lat="45.8857" lon="3.03102">
        <ele>606</ele>
        <time>2022-02-15T10:00:05Z</time>
      </trkpt>
      <trkpt lat="45.88616" lon="3.03188">
        <ele>609</ele>
        <time>2022-02-15T10:00:42Z</time>
      </trkpt>
      <trkpt lat="45.8863" lon="3.03204">
        <ele>612</ele>
        <time>2022-02-15T10:00:51Z</time>
      </trkpt>
      <trkpt lat="45.88654" lon="3.03216">
        <ele>619</ele>
        <time>2022-02-15T10:01:04Z</time>
      </trkpt>
      <trkpt lat="45.88686" lon="3.03231">
        <ele>626</ele>
        <time>2022-02-15T10:01:21Z</time>
      </trkpt>
      <trkpt lat="45.88734" lon="3.03252">
        <ele>635</ele>
        <time>2022-02-15T10:01:46Z</time>
      </trkpt>
      <trkpt lat="45.88766" lon="3.03264">
        <ele>640</ele>
        <time>2022-02-15T10:02:03Z</time>
      </trkpt>
      <trkpt lat="45.88802" lon="3.03268">
        <ele>642</ele>
        <time>2022-02-15T10:02:21Z</time>
      </trkpt>
      <trkpt lat="45.88828" lon="3.03249">
        <ele>644</ele>
        <time>2022-02-15T10:02:35Z</time>
      </trkpt>
      <trkpt lat="45.88868" lon="3.03135">
        <ele>647</ele>
        <time>2022-02-15T10:03:20Z</time>
      </trkpt>
      <trkpt lat="45.88878" lon="3.03084">
        <ele>653</ele>
        <time>2022-02-15T10:03:38Z</time>
      </trkpt>
      <trkpt lat="45.88883" lon="3.03067">
        <ele>656</ele>
        <time>2022-02-15T10:03:45Z</time>
      </trkpt>
      <trkpt lat="45.88894" lon="3.03054">
        <ele>656</ele>
        <time>2022-02-15T10:03:52Z</time>
      </trkpt>
      <trkpt lat="45.88907" lon="3.03039">
        <ele>657</ele>
        <time>2022-02-15T10:04:00Z</time>
      </trkpt>
      <trkpt lat="45.88934" lon="3.03036">
        <ele>652</ele>
        <time>2022-02-15T10:04:14Z</time>
      </trkpt>
      <trkpt lat="45.88951" lon="3.03041">
        <ele>649</ele>
        <time>2022-02-15T10:04:22Z</time>
      </trkpt>
      <trkpt lat="45.88969" lon="3.03042">
        <ele>646</ele>
        <time>2022-02-15T10:04:31Z</time>
      </trkpt>
      <trkpt lat="45.88984" lon="3.03002">
        <ele>656</ele>
        <time>2022-02-15T10:04:47Z</time>
      </trkpt>
      <trkpt lat="45.8901" lon="3.02965">
        <ele>658</ele>
        <time>2022-02-15T10:05:05Z</time>
      </trkpt>
      <trkpt lat="45.89031" lon="3.02935">
        <ele>661</ele>
        <time>2022-02-15T10:05:20Z</time>
      </trkpt>
      <trkpt lat="45.8904" lon="3.02904">
        <ele>664</ele>
        <time>2022-02-15T10:05:32Z</time>
      </trkpt>
      <trkpt lat="45.8904" lon="3.02864">
        <ele>669</ele>
        <time>2022-02-15T10:05:46Z</time>
      </trkpt>
      <trkpt lat="45.89037" lon="3.02796">
        <ele>676</ele>
        <time>2022-02-15T10:06:10Z</time>
      </trkpt>
      <trkpt lat="45.89042" lon="3.02772">
        <ele>678</ele>
        <time>2022-02-15T10:06:18Z</time>
      </trkpt>
      <trkpt lat="45.89059" lon="3.02766">
        <ele>677</ele>
        <time>2022-02-15T10:06:27Z</time>
      </trkpt>
      <trkpt lat="45.89067" lon="3.0278">
        <ele>675</ele>
        <time>2022-02-15T10:06:33Z</time>
      </trkpt>
      <trkpt lat="45.89096" lon="3.02807">
        <ele>672</ele>
        <time>2022-02-15T10:06:51Z</time>
      </trkpt>
      <trkpt lat="45.89138" lon="3.02852">
        <ele>671</ele>
        <time>2022-02-15T10:07:17Z</time>
      </trkpt>
      <trkpt lat="45.89181" lon="3.02927">
        <ele>665</ele>
        <time>2022-02-15T10:07:51Z</time>
      </trkpt>
      <trkpt lat="45.89308" lon="3.02991">
        <ele>664</ele>
        <time>2022-02-15T10:08:58Z</time>
      </trkpt>
      <trkpt lat="45.89324" lon="3.03006">
        <ele>662</ele>
        <time>2022-02-15T10:09:08Z</time>
      </trkpt>
      <trkpt lat="45.89338" lon="3.03033">
        <ele>660</ele>
        <time>2022-02-15T10:09:19Z</time>
      </trkpt>
      <trkpt lat="45.89349" lon="3.03076">
        <ele>656</ele>
        <time>2022-02-15T10:09:35Z</time>
      </trkpt>
      <trkpt lat="45.89358" lon="3.0316">
        <ele>654</ele>
        <time>2022-02-15T10:10:05Z</time>
      </trkpt>
      <trkpt lat="45.89379" lon="3.03203">
        <ele>655</ele>
        <time>2022-02-15T10:10:23Z</time>
      </trkpt>
      <trkpt lat="45.89387" lon="3.03236">
        <ele>656</ele>
        <time>2022-02-15T10:10:35Z</time>
      </trkpt>
      <trkpt lat="45.89387" lon="3.03288">
        <ele>656</ele>
        <time>2022-02-15T10:10:54Z</time>
      </trkpt>
      <trkpt lat="45.89387" lon="3.03345">
        <ele>656</ele>
        <time>2022-02-15T10:11:13Z</time>
      </trkpt>
      <trkpt lat="45.89379" lon="3.03405">
        <ele>658</ele>
        <time>2022-02-15T10:11:35Z</time>
      </trkpt>
      <trkpt lat="45.89365" lon="3.03401">
        <ele>659</ele>
        <time>2022-02-15T10:11:42Z</time>
      </trkpt>
      <trkpt lat="45.89347" lon="3.0343">
        <ele>661</ele>
        <time>2022-02-15T10:11:55Z</time>
      </trkpt>
      <trkpt lat="45.89334" lon="3.03432">
        <ele>662</ele>
        <time>2022-02-15T10:12:02Z</time>
      </trkpt>
      <trkpt lat="45.89321" lon="3.03428">
        <ele>659</ele>
        <time>2022-02-15T10:12:09Z</time>
      </trkpt>
      <trkpt lat="45.89295" lon="3.03437">
        <ele>654</ele>
        <time>2022-02-15T10:12:22Z</time>
      </trkpt>
      <trkpt lat="45.89278" lon="3.03426">
        <ele>651</ele>
        <time>2022-02-15T10:12:31Z</time>
      </trkpt>
      <trkpt lat="45.89272" lon="3.03444">
        <ele>649</ele>
        <time>2022-02-15T10:12:38Z</time>
      </trkpt>
      <trkpt lat="45.89276" lon="3.0347">
        <ele>647</ele>
        <time>2022-02-15T10:12:48Z</time>
      </trkpt>
      <trkpt lat="45.89278" lon="3.03502">
        <ele>645</ele>
        <time>2022-02-15T10:12:59Z</time>
      </trkpt>
      <trkpt lat="45.89283" lon="3.03527">
        <ele>645</ele>
        <time>2022-02-15T10:13:08Z</time>
      </trkpt>
      <trkpt lat="45.89298" lon="3.03542">
        <ele>649</ele>
        <time>2022-02-15T10:13:17Z</time>
      </trkpt>
      <trkpt lat="45.89302" lon="3.03614">
        <ele>648</ele>
        <time>2022-02-15T10:13:42Z</time>
      </trkpt>
      <trkpt lat="45.89303" lon="3.03675">
        <ele>647</ele>
        <time>2022-02-15T10:14:03Z</time>
      </trkpt>
      <trkpt lat="45.89312" lon="3.03713">
        <ele>650</ele>
        <time>2022-02-15T10:14:17Z</time>
      </trkpt>
      <trkpt lat="45.89309" lon="3.03744">
        <ele>650</ele>
        <time>2022-02-15T10:14:28Z</time>
      </trkpt>
      <trkpt lat="45.89291" lon="3.03751">
        <ele>647</ele>
        <time>2022-02-15T10:14:38Z</time>
      </trkpt>
      <trkpt lat="45.8927" lon="3.03752">
        <ele>643</ele>
        <time>2022-02-15T10:14:48Z</time>
      </trkpt>
      <trkpt lat="45.89249" lon="3.03748">
        <ele>640</ele>
        <time>2022-02-15T10:14:59Z</time>
      </trkpt>
      <trkpt lat="45.89217" lon="3.03719">
        <ele>631</ele>
        <time>2022-02-15T10:15:18Z</time>
      </trkpt>
      <trkpt lat="45.89193" lon="3.03694">
        <ele>623</ele>
        <time>2022-02-15T10:15:32Z</time>
      </trkpt>
      <trkpt lat="45.89177" lon="3.03689">
        <ele>619</ele>
        <time>2022-02-15T10:15:41Z</time>
      </trkpt>
      <trkpt lat="45.89157" lon="3.03705">
        <ele>615</ele>
        <time>2022-02-15T10:15:52Z</time>
      </trkpt>
      <trkpt lat="45.89147" lon="3.03737">
        <ele>614</ele>
        <time>2022-02-15T10:16:04Z</time>
      </trkpt>
      <trkpt lat="45.89184" lon="3.03825">
        <ele>624</ele>
        <time>2022-02-15T10:16:40Z</time>
      </trkpt>
      <trkpt lat="45.89188" lon="3.03867">
        <ele>625</ele>
        <time>2022-02-15T10:16:55Z</time>
      </trkpt>
      <trkpt lat="45.89185" lon="3.03923">
        <ele>625</ele>
        <time>2022-02-15T10:17:14Z</time>
      </trkpt>
      <trkpt lat="45.89113" lon="3.03948">
        <ele>613</ele>
        <time>2022-02-15T10:17:51Z</time>
      </trkpt>
      <trkpt lat="45.8907" lon="3.03955">
        <ele>605</ele>
        <time>2022-02-15T10:18:13Z</time>
      </trkpt>
      <trkpt lat="45.89027" lon="3.03991">
        <ele>601</ele>
        <time>2022-02-15T10:18:38Z</time>
      </trkpt>
      <trkpt lat="45.89011" lon="3.04021">
        <ele>599</ele>
        <time>2022-02-15T10:18:51Z</time>
      </trkpt>
      <trkpt lat="45.89007" lon="3.04047">
        <ele>598</ele>
        <time>2022-02-15T10:19:00Z</time>
      </trkpt>
      <trkpt lat="45.89004" lon="3.04063">
        <ele>598</ele>
        <time>2022-02-15T10:19:06Z</time>
      </trkpt>
      <trkpt lat="45.89006" lon="3.04079">
        <ele>599</ele>
        <time>2022-02-15T10:19:12Z</time>
      </trkpt>
      <trkpt lat="45.88996" lon="3.04093">
        <ele>594</ele>
        <time>2022-02-15T10:19:19Z</time>
      </trkpt>
      <trkpt lat="45.88971" lon="3.04087">
        <ele>586</ele>
        <time>2022-02-15T10:19:32Z</time>
      </trkpt>
      <trkpt lat="45.8894" lon="3.04068">
        <ele>574</ele>
        <time>2022-02-15T10:19:48Z</time>
      </trkpt>
      <trkpt lat="45.88941" lon="3.04088">
        <ele>575</ele>
        <time>2022-02-15T10:19:55Z</time>
      </trkpt>
      <trkpt lat="45.88956" lon="3.04113">
        <ele>576</ele>
        <time>2022-02-15T10:20:07Z</time>
      </trkpt>
      <trkpt lat="45.88964" lon="3.04136">
        <ele>575</ele>
        <time>2022-02-15T10:20:16Z</time>
      </trkpt>
      <trkpt lat="45.88978" lon="3.04151">
        <ele>578</ele>
        <time>2022-02-15T10:20:25Z</time>
      </trkpt>
      <trkpt lat="45.88983" lon="3.04176">
        <ele>575</ele>
        <time>2022-02-15T10:20:34Z</time>
      </trkpt>
      <trkpt lat="45.88993" lon="3.04234">
        <ele>565</ele>
        <time>2022-02-15T10:20:55Z</time>
      </trkpt>
      <trkpt lat="45.89006" lon="3.04268">
        <ele>562</ele>
        <time>2022-02-15T10:21:08Z</time>
      </trkpt>
      <trkpt lat="45.8902" lon="3.04288">
        <ele>563</ele>
        <time>2022-02-15T10:21:18Z</time>
      </trkpt>
      <trkpt lat="45.89026" lon="3.04322">
        <ele>557</ele>
        <time>2022-02-15T10:21:30Z</time>
      </trkpt>
      <trkpt lat="45.89046" lon="3.04373">
        <ele>553</ele>
        <time>2022-02-15T10:21:51Z</time>
      </trkpt>
      <trkpt lat="45.89078" lon="3.04418">
        <ele>552</ele>
        <time>2022-02-15T10:22:13Z</time>
      </trkpt>
      <trkpt lat="45.8911" lon="3.04448">
        <ele>549</ele>
        <time>2022-02-15T10:22:32Z</time>
      </trkpt>
      <trkpt lat="45.89145" lon="3.04462">
        <ele>550</ele>
        <time>2022-02-15T10:22:50Z</time>
      </trkpt>
      <trkpt lat="45.89172" lon="3.04462">
        <ele>552</ele>
        <time>2022-02-15T10:23:04Z</time>
      </trkpt>
      <trkpt lat="45.89193" lon="3.04459">
        <ele>549</ele>
        <time>2022-02-15T10:23:14Z</time>
      </trkpt>
      <trkpt lat="45.89201" lon="3.04473">
        <ele>543</ele>
        <time>2022-02-15T10:23:21Z</time>
      </trkpt>
      <trkpt lat="45.89185" lon="3.0449">
        <ele>541</ele>
        <time>2022-02-15T10:23:31Z</time>
      </trkpt>
      <trkpt lat="45.89159" lon="3.04495">
        <ele>541</ele>
        <time>2022-02-15T10:23:44Z</time>
      </trkpt>
      <trkpt lat="45.89134" lon="3.04493">
        <ele>538</ele>
        <time>2022-02-15T10:23:56Z</time>
      </trkpt>
      <trkpt lat="45.89085" lon="3.04476">
        <ele>537</ele>
        <time>2022-02-15T10:24:21Z</time>
      </trkpt>
      <trkpt lat="45.89058" lon="3.04461">
        <ele>534</ele>
        <time>2022-02-15T10:24:36Z</time>
      </trkpt>
      <trkpt lat="45.8899" lon="3.04372">
        <ele>532</ele>
        <time>2022-02-15T10:25:22Z</time>
      </trkpt>
      <trkpt lat="45.88977" lon="3.04337">
        <ele>534</ele>
        <time>2022-02-15T10:25:36Z</time>
      </trkpt>
      <trkpt lat="45.88942" lon="3.04281">
        <ele>532</ele>
        <time>2022-02-15T10:26:02Z</time>
      </trkpt>
      <trkpt lat="45.88935" lon="3.04291">
        <ele>527</ele>
        <time>2022-02-15T10:26:07Z</time>
      </trkpt>
      <trkpt lat="45.88944" lon="3.04323">
        <ele>524</ele>
        <time>2022-02-15T10:26:19Z</time>
      </trkpt>
      <trkpt lat="45.88943" lon="3.04348">
        <ele>519</ele>
        <time>2022-02-15T10:26:28Z</time>
      </trkpt>
      <trkpt lat="45.88943" lon="3.04394">
        <ele>512</ele>
        <time>2022-02-15T10:26:44Z</time>
      </trkpt>
      <trkpt lat="45.88952" lon="3.04443">
        <ele>506</ele>
        <time>2022-02-15T10:27:01Z</time>
      </trkpt>
      <trkpt lat="45.8894" lon="3.04451">
        <ele>501</ele>
        <time>2022-02-15T10:27:08Z</time>
      </trkpt>
      <trkpt lat="45.88924" lon="3.04407">
        <ele>504</ele>
        <time>2022-02-15T10:27:25Z</time>
      </trkpt>
      <trkpt lat="45.88922" lon="3.04379">
        <ele>507</ele>
        <time>2022-02-15T10:27:35Z</time>
      </trkpt>
      <trkpt lat="45.88907" lon="3.04365">
        <ele>504</ele>
        <time>2022-02-15T10:27:44Z</time>
      </trkpt>
      <trkpt lat="45.88884" lon="3.04333">
        <ele>500</ele>
        <time>2022-02-15T10:28:00Z</time>
      </trkpt>
      <trkpt lat="45.88867" lon="3.04297">
        <ele>502</ele>
        <time>2022-02-15T10:28:15Z</time>
      </trkpt>
      <trkpt lat="45.88872" lon="3.04275">
        <ele>508</ele>
        <time>2022-02-15T10:28:23Z</time>
      </trkpt>
      <trkpt lat="45.88828" lon="3.04184">
        <ele>511</ele>
        <time>2022-02-15T10:29:02Z</time>
      </trkpt>
      <trkpt lat="45.88805" lon="3.04107">
        <ele>513</ele>
        <time>2022-02-15T10:29:31Z</time>
      </trkpt>
      <trkpt lat="45.88801" lon="3.04066">
        <ele>514</ele>
        <time>2022-02-15T10:29:45Z</time>
      </trkpt>
      <trkpt lat="45.88797" lon="3.04029">
        <ele>512</ele>
        <time>2022-02-15T10:29:58Z</time>
      </trkpt>
      <trkpt lat="45.88799" lon="3.03998">
        <ele>512</ele>
        <time>2022-02-15T10:30:09Z</time>
      </trkpt>
      <trkpt lat="45.88813" lon="3.03941">
        <ele>514</ele>
        <time>2022-02-15T10:30:30Z</time>
      </trkpt>
      <trkpt lat="45.88814" lon="3.03924">
        <ele>514</ele>
        <time>2022-02-15T10:30:36Z</time>
      </trkpt>
      <trkpt lat="45.88806" lon="3.03905">
        <ele>514</ele>
        <time>2022-02-15T10:30:44Z</time>
      </trkpt>
      <trkpt lat="45.888" lon="3.03896">
        <ele>515</ele>
        <time>2022-02-15T10:30:48Z</time>
      </trkpt>
      <trkpt lat="45.88789" lon="3.03894">
        <ele>514</ele>
        <time>2022-02-15T10:30:54Z</time>
      </trkpt>
      <trkpt lat="45.88769" lon="3.03895">
        <ele>513</ele>
        <time>2022-02-15T10:31:04Z</time>
      </trkpt>
      <trkpt lat="45.88745" lon="3.03872">
        <ele>515</ele>
        <time>2022-02-15T10:31:18Z</time>
      </trkpt>
      <trkpt lat="45.8873" lon="3.03818">
        <ele>524</ele>
        <time>2022-02-15T10:31:39Z</time>
      </trkpt>
      <trkpt lat="45.887" lon="3.03751">
        <ele>531</ele>
        <time>2022-02-15T10:32:06Z</time>
      </trkpt>
      <trkpt lat="45.88669" lon="3.03714">
        <ele>533</ele>
        <time>2022-02-15T10:32:27Z</time>
      </trkpt>
      <trkpt lat="45.88626" lon="3.03667">
        <ele>539</ele>
        <time>2022-02-15T10:32:54Z</time>
      </trkpt>
      <trkpt lat="45.88589" lon="3.03607">
        <ele>543</ele>
        <time>2022-02-15T10:33:22Z</time>
      </trkpt>
      <trkpt lat="45.88578" lon="3.03586">
        <ele>545</ele>
        <time>2022-02-15T10:33:31Z</time>
      </trkpt>
      <trkpt lat="45.88572" lon="3.03558">
        <ele>550</ele>
        <time>2022-02-15T10:33:41Z</time>
      </trkpt>
      <trkpt lat="45.88562" lon="3.03495">
        <ele>558</ele>
        <time>2022-02-15T10:34:03Z</time>
      </trkpt>
      <trkpt lat="45.88553" lon="3.03404">
        <ele>570</ele>
        <time>2022-02-15T10:34:35Z</time>
      </trkpt>
      <trkpt lat="45.88537" lon="3.03362">
        <ele>572</ele>
        <time>2022-02-15T10:34:52Z</time>
      </trkpt>
      <trkpt lat="45.88521" lon="3.03335">
        <ele>572</ele>
        <time>2022-02-15T10:35:04Z</time>
      </trkpt>
      <trkpt lat="45.88506" lon="3.03315">
        <ele>571</ele>
        <time>2022-02-15T10:35:15Z</time>
      </trkpt>
      <trkpt lat="45.88494" lon="3.03317">
        <ele>572</ele>
        <time>2022-02-15T10:35:21Z</time>
      </trkpt>
      <trkpt lat="45.8849" lon="3.03392">
        <ele>572</ele>
        <time>2022-02-15T10:35:47Z</time>
      </trkpt>
      <trkpt lat="45.88477" lon="3.03482">
        <ele>576</ele>
        <time>2022-02-15T10:36:19Z</time>
      </trkpt>
      <trkpt lat="45.88471" lon="3.03553">
        <ele>576</ele>
        <time>2022-02-15T10:36:44Z</time>
      </trkpt>
      <trkpt lat="45.88437" lon="3.03584">
        <ele>590</ele>
        <time>2022-02-15T10:37:04Z</time>
      </trkpt>
      <trkpt lat="45.88427" lon="3.036">
        <ele>594</ele>
        <time>2022-02-15T10:37:12Z</time>
      </trkpt>
      <trkpt lat="45.8843" lon="3.03626">
        <ele>591</ele>
        <time>2022-02-15T10:37:21Z</time>
      </trkpt>
      <trkpt lat="45.8845" lon="3.03667">
        <ele>582</ele>
        <time>2022-02-15T10:37:38Z</time>
      </trkpt>
      <trkpt lat="45.8848" lon="3.03727">
        <ele>583</ele>
        <time>2022-02-15T10:38:04Z</time>
      </trkpt>
      <trkpt lat="45.88489" lon="3.03748">
        <ele>587</ele>
        <time>2022-02-15T10:38:12Z</time>
      </trkpt>
      <trkpt lat="45.88506" lon="3.03782">
        <ele>587</ele>
        <time>2022-02-15T10:38:27Z</time>
      </trkpt>
      <trkpt lat="45.88477" lon="3.03769">
        <ele>589</ele>
        <time>2022-02-15T10:38:42Z</time>
      </trkpt>
      <trkpt lat="45.88459" lon="3.03793">
        <ele>589</ele>
        <time>2022-02-15T10:38:55Z</time>
      </trkpt>
      <trkpt lat="45.88441" lon="3.03773">
        <ele>590</ele>
        <time>2022-02-15T10:39:06Z</time>
      </trkpt>
      <trkpt lat="45.88425" lon="3.0376">
        <ele>592</ele>
        <time>2022-02-15T10:39:15Z</time>
      </trkpt>
      <trkpt lat="45.88411" lon="3.03752">
        <ele>593</ele>
        <time>2022-02-15T10:39:23Z</time>
      </trkpt>
      <trkpt lat="45.88358" lon="3.03728">
        <ele>595</ele>
        <time>2022-02-15T10:39:50Z</time>
      </trkpt>
      <trkpt lat="45.88286" lon="3.03678">
        <ele>603</ele>
        <time>2022-02-15T10:40:31Z</time>
      </trkpt>
      <trkpt lat="45.88229" lon="3.03642">
        <ele>613</ele>
        <time>2022-02-15T10:41:02Z</time>
      </trkpt>
      <trkpt lat="45.88206" lon="3.03631">
        <ele>617</ele>
        <time>2022-02-15T10:41:14Z</time>
      </trkpt>
      <trkpt lat="45.8818" lon="3.03635">
        <ele>616</ele>
        <time>2022-02-15T10:41:27Z</time>
      </trkpt>
      <trkpt lat="45.88153" lon="3.03641">
        <ele>615</ele>
        <time>2022-02-15T10:41:41Z</time>
      </trkpt>
      <trkpt lat="45.88125" lon="3.03649">
        <ele>615</ele>
        <time>2022-02-15T10:41:55Z</time>
      </trkpt>
      <trkpt lat="45.88104" lon="3.03655">
        <ele>615</ele>
        <time>2022-02-15T10:42:06Z</time>
      </trkpt>
      <trkpt lat="45.88074" lon="3.03658">
        <ele>616</ele>
        <time>2022-02-15T10:42:21Z</time>
      </trkpt>
      <trkpt lat="45.88025" lon="3.03664">
        <ele>615</ele>
        <time>2022-02-15T10:42:45Z</time>
      </trkpt>
      <trkpt lat="45.87987" lon="3.03659">
        <ele>620</ele>
        <time>2022-02-15T10:43:04Z</time>
      </trkpt>
      <trkpt lat="45.87957" lon="3.03659">
        <ele>623</ele>
        <time>2022-02-15T10:43:19Z</time>
      </trkpt>
      <trkpt lat="45.8793" lon="3.0366">
        <ele>625</ele>
        <time>2022-02-15T10:43:33Z</time>
      </trkpt>
      <trkpt lat="45.87896" lon="3.03666">
        <ele>626</ele>
        <time>2022-02-15T10:43:50Z</time>
      </trkpt>
      <trkpt lat="45.87887" lon="3.03665">
        <ele>627</ele>
        <time>2022-02-15T10:43:54Z</time>
      </trkpt>
      <trkpt lat="45.87861" lon="3.03666">
        <ele>630</ele>
        <time>2022-02-15T10:44:08Z</time>
      </trkpt>
      <trkpt lat="45.87822" lon="3.03675">
        <ele>631</ele>
        <time>2022-02-15T10:44:27Z</time>
      </trkpt>
      <trkpt lat="45.87804" lon="3.03682">
        <ele>631</ele>
        <time>2022-02-15T10:44:37Z</time>
      </trkpt>
      <trkpt lat="45.87736" lon="3.03793">
        <ele>598</ele>
        <time>2022-02-15T10:45:28Z</time>
      </trkpt>
      <trkpt lat="45.87694" lon="3.0383">
        <ele>584</ele>
        <time>2022-02-15T10:45:53Z</time>
      </trkpt>
      <trkpt lat="45.87717" lon="3.03902">
        <ele>561</ele>
        <time>2022-02-15T10:46:20Z</time>
      </trkpt>
      <trkpt lat="45.87764" lon="3.03901">
        <ele>561</ele>
        <time>2022-02-15T10:46:44Z</time>
      </trkpt>
      <trkpt lat="45.87773" lon="3.03907">
        <ele>558</ele>
        <time>2022-02-15T10:46:49Z</time>
      </trkpt>
      <trkpt lat="45.8778" lon="3.03918">
        <ele>553</ele>
        <time>2022-02-15T10:46:54Z</time>
      </trkpt>
      <trkpt lat="45.87798" lon="3.03921">
        <ele>551</ele>
        <time>2022-02-15T10:47:03Z</time>
      </trkpt>
      <trkpt lat="45.87807" lon="3.03929">
        <ele>548</ele>
        <time>2022-02-15T10:47:08Z</time>
      </trkpt>
      <trkpt lat="45.87808" lon="3.03942">
        <ele>544</ele>
        <time>2022-02-15T10:47:13Z</time>
      </trkpt>
      <trkpt lat="45.87793" lon="3.04008">
        <ele>528</ele>
        <time>2022-02-15T10:47:37Z</time>
      </trkpt>
      <trkpt lat="45.8777" lon="3.04014">
        <ele>528</ele>
        <time>2022-02-15T10:47:49Z</time>
      </trkpt>
      <trkpt lat="45.87681" lon="3.04021">
        <ele>526</ele>
        <time>2022-02-15T10:48:33Z</time>
      </trkpt>
      <trkpt lat="45.87489" lon="3.04028">
        <ele>501</ele>
        <time>2022-02-15T10:50:10Z</time>
      </trkpt>
      <trkpt lat="45.87459" lon="3.04052">
        <ele>497</ele>
        <time>2022-02-15T10:50:27Z</time>
      </trkpt>
      <trkpt lat="45.87494" lon="3.04152">
        <ele>492</ele>
        <time>2022-02-15T10:51:06Z</time>
      </trkpt>
      <trkpt lat="45.87505" lon="3.04209">
        <ele>489</ele>
        <time>2022-02-15T10:51:26Z</time>
      </trkpt>
      <trkpt lat="45.87519" lon="3.04357">
        <ele>482</ele>
        <time>2022-02-15T10:52:18Z</time>
      </trkpt>
      <trkpt lat="45.87631" lon="3.04366">
        <ele>482</ele>
        <time>2022-02-15T10:53:15Z</time>
      </trkpt>
      <trkpt lat="45.8766" lon="3.04444">
        <ele>481</ele>
        <time>2022-02-15T10:53:45Z</time>
      </trkpt>
      <trkpt lat="45.87663" lon="3.0447">
        <ele>481</ele>
        <time>2022-02-15T10:53:55Z</time>
      </trkpt>
      <trkpt lat="45.87654" lon="3.045">
        <ele>480</ele>
        <time>2022-02-15T10:54:06Z</time>
      </trkpt>
      <trkpt lat="45.87617" lon="3.04504">
        <ele>480</ele>
        <time>2022-02-15T10:54:24Z</time>
      </trkpt>
      <trkpt lat="45.87616" lon="3.04484">
        <ele>480</ele>
        <time>2022-02-15T10:54:31Z</time>
      </trkpt>
    </trkseg>
  </trk>
</gpx>